<?xml version="1.0" encoding="UTF-8" standalone="no" ?>
<gpx xmlns="http://www.topografix.com/GPX/1/1" xmlns:xsi="http://www.w3.org/2001/XMLSchema-instance" xsi:schemaLocation="http://www.topografix.com/GPX/1/1 http://www.topografix.com/GPX/1/1/gpx.xsd" version="1.1" creator="VisuGPX - https://www.visugpx.com">
  <metadata>
    <name>Golf Miramas</name>
    <desc><![CDATA[Rando du 21/05/2020 pour Grans Randonnée (Babette)]]></desc>
  </metadata>
  <trk>
    <name><![CDATA[Glof Miramas]]></name>
    <trkseg>
      <trkpt lat="43.60841" lon="5.06694">
        <ele>56</ele>
        <time>2020-05-21T11:33:47Z</time>
      </trkpt>
      <trkpt lat="43.60841" lon="5.06694">
        <ele>56</ele>
        <time>2020-05-21T11:33:48Z</time>
      </trkpt>
      <trkpt lat="43.60832" lon="5.06686">
        <ele>56</ele>
        <time>2020-05-21T11:34:05Z</time>
      </trkpt>
      <trkpt lat="43.60811" lon="5.06668">
        <ele>56</ele>
        <time>2020-05-21T11:34:28Z</time>
      </trkpt>
      <trkpt lat="43.60782" lon="5.06676">
        <ele>57</ele>
        <time>2020-05-21T11:34:57Z</time>
      </trkpt>
      <trkpt lat="43.60751" lon="5.0666">
        <ele>58</ele>
        <time>2020-05-21T11:35:30Z</time>
      </trkpt>
      <trkpt lat="43.60722" lon="5.06631">
        <ele>58</ele>
        <time>2020-05-21T11:36:02Z</time>
      </trkpt>
      <trkpt lat="43.60714" lon="5.06614">
        <ele>59</ele>
        <time>2020-05-21T11:36:16Z</time>
      </trkpt>
      <trkpt lat="43.60703" lon="5.06611">
        <ele>58</ele>
        <time>2020-05-21T11:36:27Z</time>
      </trkpt>
      <trkpt lat="43.60671" lon="5.06626">
        <ele>59</ele>
        <time>2020-05-21T11:36:58Z</time>
      </trkpt>
      <trkpt lat="43.60663" lon="5.06619">
        <ele>58</ele>
        <time>2020-05-21T11:37:10Z</time>
      </trkpt>
      <trkpt lat="43.60667" lon="5.06606">
        <ele>58</ele>
        <time>2020-05-21T11:37:20Z</time>
      </trkpt>
      <trkpt lat="43.60664" lon="5.06557">
        <ele>56</ele>
        <time>2020-05-21T11:37:48Z</time>
      </trkpt>
      <trkpt lat="43.6065" lon="5.06514">
        <ele>55</ele>
        <time>2020-05-21T11:38:17Z</time>
      </trkpt>
      <trkpt lat="43.60645" lon="5.06458">
        <ele>55</ele>
        <time>2020-05-21T11:38:51Z</time>
      </trkpt>
      <trkpt lat="43.60635" lon="5.06413">
        <ele>55</ele>
        <time>2020-05-21T11:39:24Z</time>
      </trkpt>
      <trkpt lat="43.60636" lon="5.06411">
        <ele>55</ele>
        <time>2020-05-21T11:39:26Z</time>
      </trkpt>
      <trkpt lat="43.60651" lon="5.06377">
        <ele>55</ele>
        <time>2020-05-21T11:39:54Z</time>
      </trkpt>
      <trkpt lat="43.60644" lon="5.06319">
        <ele>57</ele>
        <time>2020-05-21T11:40:29Z</time>
      </trkpt>
      <trkpt lat="43.60648" lon="5.06283">
        <ele>57</ele>
        <time>2020-05-21T11:40:58Z</time>
      </trkpt>
      <trkpt lat="43.60642" lon="5.06261">
        <ele>57</ele>
        <time>2020-05-21T11:41:30Z</time>
      </trkpt>
      <trkpt lat="43.60631" lon="5.06217">
        <ele>61</ele>
        <time>2020-05-21T11:42:01Z</time>
      </trkpt>
      <trkpt lat="43.60627" lon="5.06193">
        <ele>62</ele>
        <time>2020-05-21T11:42:31Z</time>
      </trkpt>
      <trkpt lat="43.60629" lon="5.06173">
        <ele>62</ele>
        <time>2020-05-21T11:42:47Z</time>
      </trkpt>
      <trkpt lat="43.60645" lon="5.06144">
        <ele>66</ele>
        <time>2020-05-21T11:43:19Z</time>
      </trkpt>
      <trkpt lat="43.60645" lon="5.06139">
        <ele>66</ele>
        <time>2020-05-21T11:43:33Z</time>
      </trkpt>
      <trkpt lat="43.60646" lon="5.06133">
        <ele>67</ele>
        <time>2020-05-21T11:43:37Z</time>
      </trkpt>
      <trkpt lat="43.60645" lon="5.06109">
        <ele>68</ele>
        <time>2020-05-21T11:44:04Z</time>
      </trkpt>
      <trkpt lat="43.60649" lon="5.06041">
        <ele>71</ele>
        <time>2020-05-21T11:44:47Z</time>
      </trkpt>
      <trkpt lat="43.60649" lon="5.05989">
        <ele>71</ele>
        <time>2020-05-21T11:45:20Z</time>
      </trkpt>
      <trkpt lat="43.60643" lon="5.05931">
        <ele>70</ele>
        <time>2020-05-21T11:45:55Z</time>
      </trkpt>
      <trkpt lat="43.60638" lon="5.05875">
        <ele>69</ele>
        <time>2020-05-21T11:46:29Z</time>
      </trkpt>
      <trkpt lat="43.60624" lon="5.05839">
        <ele>69</ele>
        <time>2020-05-21T11:47:01Z</time>
      </trkpt>
      <trkpt lat="43.60611" lon="5.05794">
        <ele>68</ele>
        <time>2020-05-21T11:47:30Z</time>
      </trkpt>
      <trkpt lat="43.60624" lon="5.05742">
        <ele>67</ele>
        <time>2020-05-21T11:48:02Z</time>
      </trkpt>
      <trkpt lat="43.60643" lon="5.05694">
        <ele>67</ele>
        <time>2020-05-21T11:48:37Z</time>
      </trkpt>
      <trkpt lat="43.60646" lon="5.0569">
        <ele>67</ele>
        <time>2020-05-21T11:48:42Z</time>
      </trkpt>
      <trkpt lat="43.60666" lon="5.05641">
        <ele>67</ele>
        <time>2020-05-21T11:49:17Z</time>
      </trkpt>
      <trkpt lat="43.60684" lon="5.05578">
        <ele>67</ele>
        <time>2020-05-21T11:49:59Z</time>
      </trkpt>
      <trkpt lat="43.60702" lon="5.05525">
        <ele>67</ele>
        <time>2020-05-21T11:50:34Z</time>
      </trkpt>
      <trkpt lat="43.60722" lon="5.05471">
        <ele>67</ele>
        <time>2020-05-21T11:51:10Z</time>
      </trkpt>
      <trkpt lat="43.60743" lon="5.0542">
        <ele>66</ele>
        <time>2020-05-21T11:51:45Z</time>
      </trkpt>
      <trkpt lat="43.6075" lon="5.05365">
        <ele>66</ele>
        <time>2020-05-21T11:52:17Z</time>
      </trkpt>
      <trkpt lat="43.60748" lon="5.0531">
        <ele>66</ele>
        <time>2020-05-21T11:52:52Z</time>
      </trkpt>
      <trkpt lat="43.60751" lon="5.05249">
        <ele>67</ele>
        <time>2020-05-21T11:53:28Z</time>
      </trkpt>
      <trkpt lat="43.60746" lon="5.05193">
        <ele>65</ele>
        <time>2020-05-21T11:54:01Z</time>
      </trkpt>
      <trkpt lat="43.6074" lon="5.05137">
        <ele>64</ele>
        <time>2020-05-21T11:54:33Z</time>
      </trkpt>
      <trkpt lat="43.60737" lon="5.0508">
        <ele>62</ele>
        <time>2020-05-21T11:55:06Z</time>
      </trkpt>
      <trkpt lat="43.6076" lon="5.05032">
        <ele>64</ele>
        <time>2020-05-21T11:55:41Z</time>
      </trkpt>
      <trkpt lat="43.60779" lon="5.04986">
        <ele>65</ele>
        <time>2020-05-21T11:56:14Z</time>
      </trkpt>
      <trkpt lat="43.60779" lon="5.04929">
        <ele>64</ele>
        <time>2020-05-21T11:56:48Z</time>
      </trkpt>
      <trkpt lat="43.60776" lon="5.04878">
        <ele>60</ele>
        <time>2020-05-21T11:57:19Z</time>
      </trkpt>
      <trkpt lat="43.60794" lon="5.04824">
        <ele>56</ele>
        <time>2020-05-21T11:57:55Z</time>
      </trkpt>
      <trkpt lat="43.60818" lon="5.04784">
        <ele>55</ele>
        <time>2020-05-21T11:58:28Z</time>
      </trkpt>
      <trkpt lat="43.60836" lon="5.04767">
        <ele>58</ele>
        <time>2020-05-21T11:58:56Z</time>
      </trkpt>
      <trkpt lat="43.60863" lon="5.04746">
        <ele>55</ele>
        <time>2020-05-21T11:59:25Z</time>
      </trkpt>
      <trkpt lat="43.60869" lon="5.04707">
        <ele>54</ele>
        <time>2020-05-21T11:59:53Z</time>
      </trkpt>
      <trkpt lat="43.60864" lon="5.04676">
        <ele>52</ele>
        <time>2020-05-21T12:00:12Z</time>
      </trkpt>
      <trkpt lat="43.60857" lon="5.04622">
        <ele>49</ele>
        <time>2020-05-21T12:00:45Z</time>
      </trkpt>
      <trkpt lat="43.60848" lon="5.0456">
        <ele>48</ele>
        <time>2020-05-21T12:01:22Z</time>
      </trkpt>
      <trkpt lat="43.60843" lon="5.04506">
        <ele>50</ele>
        <time>2020-05-21T12:01:55Z</time>
      </trkpt>
      <trkpt lat="43.60842" lon="5.04447">
        <ele>52</ele>
        <time>2020-05-21T12:02:30Z</time>
      </trkpt>
      <trkpt lat="43.60834" lon="5.04397">
        <ele>53</ele>
        <time>2020-05-21T12:03:03Z</time>
      </trkpt>
      <trkpt lat="43.60816" lon="5.04354">
        <ele>52</ele>
        <time>2020-05-21T12:03:34Z</time>
      </trkpt>
      <trkpt lat="43.60791" lon="5.04306">
        <ele>49</ele>
        <time>2020-05-21T12:04:07Z</time>
      </trkpt>
      <trkpt lat="43.6079" lon="5.04241">
        <ele>47</ele>
        <time>2020-05-21T12:04:45Z</time>
      </trkpt>
      <trkpt lat="43.60804" lon="5.04213">
        <ele>47</ele>
        <time>2020-05-21T12:05:13Z</time>
      </trkpt>
      <trkpt lat="43.60807" lon="5.04189">
        <ele>47</ele>
        <time>2020-05-21T12:05:45Z</time>
      </trkpt>
      <trkpt lat="43.60806" lon="5.04198">
        <ele>47</ele>
        <time>2020-05-21T12:05:54Z</time>
      </trkpt>
      <trkpt lat="43.60789" lon="5.04235">
        <ele>47</ele>
        <time>2020-05-21T12:06:26Z</time>
      </trkpt>
      <trkpt lat="43.60748" lon="5.04256">
        <ele>45</ele>
        <time>2020-05-21T12:06:59Z</time>
      </trkpt>
      <trkpt lat="43.60701" lon="5.0426">
        <ele>45</ele>
        <time>2020-05-21T12:07:33Z</time>
      </trkpt>
      <trkpt lat="43.60661" lon="5.04298">
        <ele>44</ele>
        <time>2020-05-21T12:08:09Z</time>
      </trkpt>
      <trkpt lat="43.60628" lon="5.04339">
        <ele>45</ele>
        <time>2020-05-21T12:08:41Z</time>
      </trkpt>
      <trkpt lat="43.60608" lon="5.0436">
        <ele>44</ele>
        <time>2020-05-21T12:09:12Z</time>
      </trkpt>
      <trkpt lat="43.60604" lon="5.04362">
        <ele>44</ele>
        <time>2020-05-21T12:10:25Z</time>
      </trkpt>
      <trkpt lat="43.60592" lon="5.04375">
        <ele>44</ele>
        <time>2020-05-21T12:10:55Z</time>
      </trkpt>
      <trkpt lat="43.60557" lon="5.04404">
        <ele>42</ele>
        <time>2020-05-21T12:11:31Z</time>
      </trkpt>
      <trkpt lat="43.60539" lon="5.04423">
        <ele>42</ele>
        <time>2020-05-21T12:11:55Z</time>
      </trkpt>
      <trkpt lat="43.60512" lon="5.04464">
        <ele>43</ele>
        <time>2020-05-21T12:12:28Z</time>
      </trkpt>
      <trkpt lat="43.60479" lon="5.045">
        <ele>42</ele>
        <time>2020-05-21T12:13:02Z</time>
      </trkpt>
      <trkpt lat="43.60444" lon="5.04537">
        <ele>40</ele>
        <time>2020-05-21T12:13:36Z</time>
      </trkpt>
      <trkpt lat="43.60413" lon="5.0457">
        <ele>39</ele>
        <time>2020-05-21T12:14:07Z</time>
      </trkpt>
      <trkpt lat="43.6038" lon="5.04604">
        <ele>39</ele>
        <time>2020-05-21T12:14:39Z</time>
      </trkpt>
      <trkpt lat="43.60341" lon="5.04625">
        <ele>39</ele>
        <time>2020-05-21T12:15:13Z</time>
      </trkpt>
      <trkpt lat="43.60302" lon="5.04624">
        <ele>40</ele>
        <time>2020-05-21T12:15:47Z</time>
      </trkpt>
      <trkpt lat="43.60255" lon="5.04622">
        <ele>41</ele>
        <time>2020-05-21T12:16:21Z</time>
      </trkpt>
      <trkpt lat="43.6021" lon="5.04623">
        <ele>43</ele>
        <time>2020-05-21T12:16:55Z</time>
      </trkpt>
      <trkpt lat="43.6016" lon="5.0462">
        <ele>45</ele>
        <time>2020-05-21T12:17:34Z</time>
      </trkpt>
      <trkpt lat="43.60119" lon="5.04625">
        <ele>44</ele>
        <time>2020-05-21T12:18:06Z</time>
      </trkpt>
      <trkpt lat="43.60086" lon="5.04663">
        <ele>45</ele>
        <time>2020-05-21T12:18:41Z</time>
      </trkpt>
      <trkpt lat="43.60075" lon="5.04673">
        <ele>44</ele>
        <time>2020-05-21T12:19:12Z</time>
      </trkpt>
      <trkpt lat="43.60057" lon="5.04651">
        <ele>44</ele>
        <time>2020-05-21T12:19:33Z</time>
      </trkpt>
      <trkpt lat="43.60046" lon="5.0462">
        <ele>44</ele>
        <time>2020-05-21T12:20:02Z</time>
      </trkpt>
      <trkpt lat="43.60027" lon="5.04572">
        <ele>44</ele>
        <time>2020-05-21T12:20:38Z</time>
      </trkpt>
      <trkpt lat="43.60022" lon="5.04536">
        <ele>45</ele>
        <time>2020-05-21T12:21:06Z</time>
      </trkpt>
      <trkpt lat="43.60059" lon="5.04537">
        <ele>45</ele>
        <time>2020-05-21T12:21:38Z</time>
      </trkpt>
      <trkpt lat="43.60066" lon="5.04489">
        <ele>49</ele>
        <time>2020-05-21T12:22:07Z</time>
      </trkpt>
      <trkpt lat="43.60042" lon="5.0445">
        <ele>50</ele>
        <time>2020-05-21T12:22:41Z</time>
      </trkpt>
      <trkpt lat="43.60004" lon="5.04424">
        <ele>52</ele>
        <time>2020-05-21T12:23:14Z</time>
      </trkpt>
      <trkpt lat="43.59988" lon="5.04414">
        <ele>57</ele>
        <time>2020-05-21T12:23:27Z</time>
      </trkpt>
      <trkpt lat="43.59973" lon="5.04407">
        <ele>61</ele>
        <time>2020-05-21T12:23:42Z</time>
      </trkpt>
      <trkpt lat="43.59959" lon="5.044">
        <ele>63</ele>
        <time>2020-05-21T12:23:55Z</time>
      </trkpt>
      <trkpt lat="43.59945" lon="5.0439">
        <ele>64</ele>
        <time>2020-05-21T12:24:11Z</time>
      </trkpt>
      <trkpt lat="43.5993" lon="5.04381">
        <ele>65</ele>
        <time>2020-05-21T12:24:29Z</time>
      </trkpt>
      <trkpt lat="43.59912" lon="5.0437">
        <ele>71</ele>
        <time>2020-05-21T12:24:56Z</time>
      </trkpt>
      <trkpt lat="43.59899" lon="5.04339">
        <ele>72</ele>
        <time>2020-05-21T12:25:29Z</time>
      </trkpt>
      <trkpt lat="43.59899" lon="5.04323">
        <ele>73</ele>
        <time>2020-05-21T12:26:01Z</time>
      </trkpt>
      <trkpt lat="43.59899" lon="5.0432">
        <ele>73</ele>
        <time>2020-05-21T12:27:02Z</time>
      </trkpt>
      <trkpt lat="43.59894" lon="5.0428">
        <ele>73</ele>
        <time>2020-05-21T12:27:32Z</time>
      </trkpt>
      <trkpt lat="43.59886" lon="5.04231">
        <ele>74</ele>
        <time>2020-05-21T12:28:05Z</time>
      </trkpt>
      <trkpt lat="43.59878" lon="5.04172">
        <ele>74</ele>
        <time>2020-05-21T12:28:40Z</time>
      </trkpt>
      <trkpt lat="43.59862" lon="5.04134">
        <ele>75</ele>
        <time>2020-05-21T12:29:04Z</time>
      </trkpt>
      <trkpt lat="43.59868" lon="5.04128">
        <ele>75</ele>
        <time>2020-05-21T12:29:09Z</time>
      </trkpt>
      <trkpt lat="43.59889" lon="5.04113">
        <ele>76</ele>
        <time>2020-05-21T12:29:40Z</time>
      </trkpt>
      <trkpt lat="43.59881" lon="5.0411">
        <ele>76</ele>
        <time>2020-05-21T12:29:49Z</time>
      </trkpt>
      <trkpt lat="43.59871" lon="5.04092">
        <ele>76</ele>
        <time>2020-05-21T12:30:06Z</time>
      </trkpt>
      <trkpt lat="43.59865" lon="5.0404">
        <ele>77</ele>
        <time>2020-05-21T12:30:38Z</time>
      </trkpt>
      <trkpt lat="43.59849" lon="5.04018">
        <ele>76</ele>
        <time>2020-05-21T12:31:03Z</time>
      </trkpt>
      <trkpt lat="43.59848" lon="5.04018">
        <ele>76</ele>
        <time>2020-05-21T12:31:04Z</time>
      </trkpt>
      <trkpt lat="43.59822" lon="5.0398">
        <ele>73</ele>
        <time>2020-05-21T12:31:33Z</time>
      </trkpt>
      <trkpt lat="43.59803" lon="5.03934">
        <ele>73</ele>
        <time>2020-05-21T12:32:04Z</time>
      </trkpt>
      <trkpt lat="43.59793" lon="5.03919">
        <ele>72</ele>
        <time>2020-05-21T12:32:32Z</time>
      </trkpt>
      <trkpt lat="43.59811" lon="5.03918">
        <ele>73</ele>
        <time>2020-05-21T12:32:59Z</time>
      </trkpt>
      <trkpt lat="43.59812" lon="5.03916">
        <ele>73</ele>
        <time>2020-05-21T12:33:01Z</time>
      </trkpt>
      <trkpt lat="43.59814" lon="5.0391">
        <ele>73</ele>
        <time>2020-05-21T12:33:05Z</time>
      </trkpt>
      <trkpt lat="43.59827" lon="5.03847">
        <ele>74</ele>
        <time>2020-05-21T12:33:39Z</time>
      </trkpt>
      <trkpt lat="43.59826" lon="5.03774">
        <ele>73</ele>
        <time>2020-05-21T12:34:15Z</time>
      </trkpt>
      <trkpt lat="43.59831" lon="5.03716">
        <ele>72</ele>
        <time>2020-05-21T12:34:46Z</time>
      </trkpt>
      <trkpt lat="43.59804" lon="5.03675">
        <ele>71</ele>
        <time>2020-05-21T12:35:20Z</time>
      </trkpt>
      <trkpt lat="43.59774" lon="5.03639">
        <ele>69</ele>
        <time>2020-05-21T12:35:54Z</time>
      </trkpt>
      <trkpt lat="43.59743" lon="5.03607">
        <ele>68</ele>
        <time>2020-05-21T12:36:28Z</time>
      </trkpt>
      <trkpt lat="43.59707" lon="5.03584">
        <ele>68</ele>
        <time>2020-05-21T12:37:04Z</time>
      </trkpt>
      <trkpt lat="43.59703" lon="5.03575">
        <ele>69</ele>
        <time>2020-05-21T12:37:10Z</time>
      </trkpt>
      <trkpt lat="43.5971" lon="5.03569">
        <ele>69</ele>
        <time>2020-05-21T12:37:33Z</time>
      </trkpt>
      <trkpt lat="43.59705" lon="5.03572">
        <ele>69</ele>
        <time>2020-05-21T12:37:56Z</time>
      </trkpt>
      <trkpt lat="43.597" lon="5.03565">
        <ele>69</ele>
        <time>2020-05-21T12:38:14Z</time>
      </trkpt>
      <trkpt lat="43.59694" lon="5.03517">
        <ele>69</ele>
        <time>2020-05-21T12:38:51Z</time>
      </trkpt>
      <trkpt lat="43.59683" lon="5.0347">
        <ele>70</ele>
        <time>2020-05-21T12:39:24Z</time>
      </trkpt>
      <trkpt lat="43.59656" lon="5.03433">
        <ele>69</ele>
        <time>2020-05-21T12:39:56Z</time>
      </trkpt>
      <trkpt lat="43.59625" lon="5.03387">
        <ele>68</ele>
        <time>2020-05-21T12:40:33Z</time>
      </trkpt>
      <trkpt lat="43.59603" lon="5.03345">
        <ele>68</ele>
        <time>2020-05-21T12:41:05Z</time>
      </trkpt>
      <trkpt lat="43.59591" lon="5.03349">
        <ele>67</ele>
        <time>2020-05-21T12:41:29Z</time>
      </trkpt>
      <trkpt lat="43.59586" lon="5.03352">
        <ele>67</ele>
        <time>2020-05-21T12:41:36Z</time>
      </trkpt>
      <trkpt lat="43.59547" lon="5.03366">
        <ele>67</ele>
        <time>2020-05-21T12:42:08Z</time>
      </trkpt>
      <trkpt lat="43.59524" lon="5.03382">
        <ele>67</ele>
        <time>2020-05-21T12:42:42Z</time>
      </trkpt>
      <trkpt lat="43.59522" lon="5.03375">
        <ele>67</ele>
        <time>2020-05-21T12:43:16Z</time>
      </trkpt>
      <trkpt lat="43.59518" lon="5.03374">
        <ele>67</ele>
        <time>2020-05-21T12:43:50Z</time>
      </trkpt>
      <trkpt lat="43.59519" lon="5.03375">
        <ele>67</ele>
        <time>2020-05-21T12:44:14Z</time>
      </trkpt>
      <trkpt lat="43.59527" lon="5.03369">
        <ele>67</ele>
        <time>2020-05-21T12:44:27Z</time>
      </trkpt>
      <trkpt lat="43.59548" lon="5.03352">
        <ele>67</ele>
        <time>2020-05-21T12:44:56Z</time>
      </trkpt>
      <trkpt lat="43.59563" lon="5.03334">
        <ele>67</ele>
        <time>2020-05-21T12:45:16Z</time>
      </trkpt>
      <trkpt lat="43.59576" lon="5.03279">
        <ele>67</ele>
        <time>2020-05-21T12:45:54Z</time>
      </trkpt>
      <trkpt lat="43.59591" lon="5.03227">
        <ele>67</ele>
        <time>2020-05-21T12:46:28Z</time>
      </trkpt>
      <trkpt lat="43.59611" lon="5.0318">
        <ele>67</ele>
        <time>2020-05-21T12:47:03Z</time>
      </trkpt>
      <trkpt lat="43.59613" lon="5.03183">
        <ele>67</ele>
        <time>2020-05-21T12:47:29Z</time>
      </trkpt>
      <trkpt lat="43.59624" lon="5.03154">
        <ele>67</ele>
        <time>2020-05-21T12:47:55Z</time>
      </trkpt>
      <trkpt lat="43.59615" lon="5.0315">
        <ele>67</ele>
        <time>2020-05-21T12:48:23Z</time>
      </trkpt>
      <trkpt lat="43.59617" lon="5.03147">
        <ele>67</ele>
        <time>2020-05-21T12:48:32Z</time>
      </trkpt>
      <trkpt lat="43.59632" lon="5.03125">
        <ele>66</ele>
        <time>2020-05-21T12:49:00Z</time>
      </trkpt>
      <trkpt lat="43.59631" lon="5.03119">
        <ele>66</ele>
        <time>2020-05-21T12:49:06Z</time>
      </trkpt>
      <trkpt lat="43.59631" lon="5.03107">
        <ele>66</ele>
        <time>2020-05-21T12:49:36Z</time>
      </trkpt>
      <trkpt lat="43.59622" lon="5.0306">
        <ele>65</ele>
        <time>2020-05-21T12:50:04Z</time>
      </trkpt>
      <trkpt lat="43.59614" lon="5.03007">
        <ele>65</ele>
        <time>2020-05-21T12:50:38Z</time>
      </trkpt>
      <trkpt lat="43.59608" lon="5.02969">
        <ele>65</ele>
        <time>2020-05-21T12:51:08Z</time>
      </trkpt>
      <trkpt lat="43.59603" lon="5.02938">
        <ele>65</ele>
        <time>2020-05-21T12:51:37Z</time>
      </trkpt>
      <trkpt lat="43.59599" lon="5.02899">
        <ele>66</ele>
        <time>2020-05-21T12:52:09Z</time>
      </trkpt>
      <trkpt lat="43.59601" lon="5.0289">
        <ele>66</ele>
        <time>2020-05-21T12:52:14Z</time>
      </trkpt>
      <trkpt lat="43.59608" lon="5.02889">
        <ele>66</ele>
        <time>2020-05-21T12:52:19Z</time>
      </trkpt>
      <trkpt lat="43.59634" lon="5.02861">
        <ele>66</ele>
        <time>2020-05-21T12:52:46Z</time>
      </trkpt>
      <trkpt lat="43.59644" lon="5.02826">
        <ele>66</ele>
        <time>2020-05-21T12:53:12Z</time>
      </trkpt>
      <trkpt lat="43.5965" lon="5.02826">
        <ele>67</ele>
        <time>2020-05-21T12:53:19Z</time>
      </trkpt>
      <trkpt lat="43.59687" lon="5.0283">
        <ele>68</ele>
        <time>2020-05-21T12:53:51Z</time>
      </trkpt>
      <trkpt lat="43.5971" lon="5.0281">
        <ele>69</ele>
        <time>2020-05-21T12:54:21Z</time>
      </trkpt>
      <trkpt lat="43.59711" lon="5.02805">
        <ele>69</ele>
        <time>2020-05-21T12:55:37Z</time>
      </trkpt>
      <trkpt lat="43.59714" lon="5.0281">
        <ele>69</ele>
        <time>2020-05-21T12:56:26Z</time>
      </trkpt>
      <trkpt lat="43.59714" lon="5.0281">
        <ele>69</ele>
        <time>2020-05-21T12:59:01Z</time>
      </trkpt>
      <trkpt lat="43.59716" lon="5.02786">
        <ele>69</ele>
        <time>2020-05-21T12:59:37Z</time>
      </trkpt>
      <trkpt lat="43.59728" lon="5.02763">
        <ele>69</ele>
        <time>2020-05-21T13:00:11Z</time>
      </trkpt>
      <trkpt lat="43.59731" lon="5.02726">
        <ele>68</ele>
        <time>2020-05-21T13:00:44Z</time>
      </trkpt>
      <trkpt lat="43.59734" lon="5.02724">
        <ele>68</ele>
        <time>2020-05-21T13:01:24Z</time>
      </trkpt>
      <trkpt lat="43.59731" lon="5.02689">
        <ele>68</ele>
        <time>2020-05-21T13:02:21Z</time>
      </trkpt>
      <trkpt lat="43.59727" lon="5.02684">
        <ele>67</ele>
        <time>2020-05-21T13:02:27Z</time>
      </trkpt>
      <trkpt lat="43.59715" lon="5.02671">
        <ele>67</ele>
        <time>2020-05-21T13:02:43Z</time>
      </trkpt>
      <trkpt lat="43.59716" lon="5.02665">
        <ele>66</ele>
        <time>2020-05-21T13:02:47Z</time>
      </trkpt>
      <trkpt lat="43.59728" lon="5.02628">
        <ele>65</ele>
        <time>2020-05-21T13:03:18Z</time>
      </trkpt>
      <trkpt lat="43.5975" lon="5.026">
        <ele>66</ele>
        <time>2020-05-21T13:03:46Z</time>
      </trkpt>
      <trkpt lat="43.59781" lon="5.02565">
        <ele>67</ele>
        <time>2020-05-21T13:04:21Z</time>
      </trkpt>
      <trkpt lat="43.59785" lon="5.0252">
        <ele>67</ele>
        <time>2020-05-21T13:04:52Z</time>
      </trkpt>
      <trkpt lat="43.5978" lon="5.02463">
        <ele>65</ele>
        <time>2020-05-21T13:05:25Z</time>
      </trkpt>
      <trkpt lat="43.59789" lon="5.02416">
        <ele>65</ele>
        <time>2020-05-21T13:05:55Z</time>
      </trkpt>
      <trkpt lat="43.59807" lon="5.02375">
        <ele>66</ele>
        <time>2020-05-21T13:06:24Z</time>
      </trkpt>
      <trkpt lat="43.59826" lon="5.02347">
        <ele>67</ele>
        <time>2020-05-21T13:06:56Z</time>
      </trkpt>
      <trkpt lat="43.5983" lon="5.0234">
        <ele>67</ele>
        <time>2020-05-21T13:07:33Z</time>
      </trkpt>
      <trkpt lat="43.5984" lon="5.02315">
        <ele>70</ele>
        <time>2020-05-21T13:08:00Z</time>
      </trkpt>
      <trkpt lat="43.59848" lon="5.02266">
        <ele>69</ele>
        <time>2020-05-21T13:08:32Z</time>
      </trkpt>
      <trkpt lat="43.59862" lon="5.02229">
        <ele>68</ele>
        <time>2020-05-21T13:09:04Z</time>
      </trkpt>
      <trkpt lat="43.59883" lon="5.02189">
        <ele>67</ele>
        <time>2020-05-21T13:09:39Z</time>
      </trkpt>
      <trkpt lat="43.59886" lon="5.02189">
        <ele>67</ele>
        <time>2020-05-21T13:09:42Z</time>
      </trkpt>
      <trkpt lat="43.59907" lon="5.02203">
        <ele>68</ele>
        <time>2020-05-21T13:10:17Z</time>
      </trkpt>
      <trkpt lat="43.59923" lon="5.02211">
        <ele>71</ele>
        <time>2020-05-21T13:10:40Z</time>
      </trkpt>
      <trkpt lat="43.59934" lon="5.02216">
        <ele>71</ele>
        <time>2020-05-21T13:11:11Z</time>
      </trkpt>
      <trkpt lat="43.59957" lon="5.0222">
        <ele>71</ele>
        <time>2020-05-21T13:11:35Z</time>
      </trkpt>
      <trkpt lat="43.59977" lon="5.02224">
        <ele>71</ele>
        <time>2020-05-21T13:12:05Z</time>
      </trkpt>
      <trkpt lat="43.59987" lon="5.02224">
        <ele>72</ele>
        <time>2020-05-21T13:12:28Z</time>
      </trkpt>
      <trkpt lat="43.59996" lon="5.02216">
        <ele>71</ele>
        <time>2020-05-21T13:12:54Z</time>
      </trkpt>
      <trkpt lat="43.59999" lon="5.02212">
        <ele>71</ele>
        <time>2020-05-21T13:12:58Z</time>
      </trkpt>
      <trkpt lat="43.60025" lon="5.02183">
        <ele>70</ele>
        <time>2020-05-21T13:13:30Z</time>
      </trkpt>
      <trkpt lat="43.60048" lon="5.02156">
        <ele>67</ele>
        <time>2020-05-21T13:13:56Z</time>
      </trkpt>
      <trkpt lat="43.6007" lon="5.02131">
        <ele>66</ele>
        <time>2020-05-21T13:14:28Z</time>
      </trkpt>
      <trkpt lat="43.60073" lon="5.02133">
        <ele>66</ele>
        <time>2020-05-21T13:14:32Z</time>
      </trkpt>
      <trkpt lat="43.60109" lon="5.02155">
        <ele>68</ele>
        <time>2020-05-21T13:15:03Z</time>
      </trkpt>
      <trkpt lat="43.60148" lon="5.02175">
        <ele>69</ele>
        <time>2020-05-21T13:15:36Z</time>
      </trkpt>
      <trkpt lat="43.60175" lon="5.02186">
        <ele>68</ele>
        <time>2020-05-21T13:16:07Z</time>
      </trkpt>
      <trkpt lat="43.60186" lon="5.02178">
        <ele>68</ele>
        <time>2020-05-21T13:16:33Z</time>
      </trkpt>
      <trkpt lat="43.60203" lon="5.02173">
        <ele>68</ele>
        <time>2020-05-21T13:17:03Z</time>
      </trkpt>
      <trkpt lat="43.60206" lon="5.02171">
        <ele>68</ele>
        <time>2020-05-21T13:17:13Z</time>
      </trkpt>
      <trkpt lat="43.60228" lon="5.02161">
        <ele>66</ele>
        <time>2020-05-21T13:17:41Z</time>
      </trkpt>
      <trkpt lat="43.60266" lon="5.02144">
        <ele>67</ele>
        <time>2020-05-21T13:18:13Z</time>
      </trkpt>
      <trkpt lat="43.60298" lon="5.02133">
        <ele>67</ele>
        <time>2020-05-21T13:18:45Z</time>
      </trkpt>
      <trkpt lat="43.60325" lon="5.02123">
        <ele>67</ele>
        <time>2020-05-21T13:19:14Z</time>
      </trkpt>
      <trkpt lat="43.60347" lon="5.02114">
        <ele>69</ele>
        <time>2020-05-21T13:19:40Z</time>
      </trkpt>
      <trkpt lat="43.60386" lon="5.02104">
        <ele>70</ele>
        <time>2020-05-21T13:20:14Z</time>
      </trkpt>
      <trkpt lat="43.60422" lon="5.02088">
        <ele>69</ele>
        <time>2020-05-21T13:20:50Z</time>
      </trkpt>
      <trkpt lat="43.60463" lon="5.02081">
        <ele>69</ele>
        <time>2020-05-21T13:21:25Z</time>
      </trkpt>
      <trkpt lat="43.60499" lon="5.02072">
        <ele>71</ele>
        <time>2020-05-21T13:21:56Z</time>
      </trkpt>
      <trkpt lat="43.6055" lon="5.02053">
        <ele>71</ele>
        <time>2020-05-21T13:22:39Z</time>
      </trkpt>
      <trkpt lat="43.60595" lon="5.02035">
        <ele>70</ele>
        <time>2020-05-21T13:23:17Z</time>
      </trkpt>
      <trkpt lat="43.60632" lon="5.02032">
        <ele>69</ele>
        <time>2020-05-21T13:23:49Z</time>
      </trkpt>
      <trkpt lat="43.60668" lon="5.02038">
        <ele>67</ele>
        <time>2020-05-21T13:24:19Z</time>
      </trkpt>
      <trkpt lat="43.60713" lon="5.02061">
        <ele>66</ele>
        <time>2020-05-21T13:24:55Z</time>
      </trkpt>
      <trkpt lat="43.60749" lon="5.02094">
        <ele>66</ele>
        <time>2020-05-21T13:25:32Z</time>
      </trkpt>
      <trkpt lat="43.6078" lon="5.0213">
        <ele>65</ele>
        <time>2020-05-21T13:26:05Z</time>
      </trkpt>
      <trkpt lat="43.60811" lon="5.02168">
        <ele>66</ele>
        <time>2020-05-21T13:26:39Z</time>
      </trkpt>
      <trkpt lat="43.60839" lon="5.02201">
        <ele>66</ele>
        <time>2020-05-21T13:27:13Z</time>
      </trkpt>
      <trkpt lat="43.60876" lon="5.02229">
        <ele>66</ele>
        <time>2020-05-21T13:27:55Z</time>
      </trkpt>
      <trkpt lat="43.60884" lon="5.02236">
        <ele>66</ele>
        <time>2020-05-21T13:28:23Z</time>
      </trkpt>
      <trkpt lat="43.60889" lon="5.02232">
        <ele>66</ele>
        <time>2020-05-21T13:29:01Z</time>
      </trkpt>
      <trkpt lat="43.60871" lon="5.02229">
        <ele>66</ele>
        <time>2020-05-21T13:29:31Z</time>
      </trkpt>
      <trkpt lat="43.60863" lon="5.02226">
        <ele>66</ele>
        <time>2020-05-21T13:30:00Z</time>
      </trkpt>
      <trkpt lat="43.60864" lon="5.02232">
        <ele>66</ele>
        <time>2020-05-21T13:30:33Z</time>
      </trkpt>
      <trkpt lat="43.60862" lon="5.02226">
        <ele>66</ele>
        <time>2020-05-21T13:31:09Z</time>
      </trkpt>
      <trkpt lat="43.60866" lon="5.02236">
        <ele>66</ele>
        <time>2020-05-21T13:31:40Z</time>
      </trkpt>
      <trkpt lat="43.60864" lon="5.02232">
        <ele>66</ele>
        <time>2020-05-21T13:32:10Z</time>
      </trkpt>
      <trkpt lat="43.60884" lon="5.02264">
        <ele>67</ele>
        <time>2020-05-21T13:32:43Z</time>
      </trkpt>
      <trkpt lat="43.60905" lon="5.0231">
        <ele>67</ele>
        <time>2020-05-21T13:33:17Z</time>
      </trkpt>
      <trkpt lat="43.60901" lon="5.02345">
        <ele>69</ele>
        <time>2020-05-21T13:33:47Z</time>
      </trkpt>
      <trkpt lat="43.6088" lon="5.02365">
        <ele>70</ele>
        <time>2020-05-21T13:34:14Z</time>
      </trkpt>
      <trkpt lat="43.60844" lon="5.02369">
        <ele>71</ele>
        <time>2020-05-21T13:34:49Z</time>
      </trkpt>
      <trkpt lat="43.60814" lon="5.02341">
        <ele>73</ele>
        <time>2020-05-21T13:35:21Z</time>
      </trkpt>
      <trkpt lat="43.60783" lon="5.02305">
        <ele>70</ele>
        <time>2020-05-21T13:35:54Z</time>
      </trkpt>
      <trkpt lat="43.60746" lon="5.02274">
        <ele>71</ele>
        <time>2020-05-21T13:36:31Z</time>
      </trkpt>
      <trkpt lat="43.60709" lon="5.02284">
        <ele>72</ele>
        <time>2020-05-21T13:37:07Z</time>
      </trkpt>
      <trkpt lat="43.60681" lon="5.02307">
        <ele>74</ele>
        <time>2020-05-21T13:37:35Z</time>
      </trkpt>
      <trkpt lat="43.60654" lon="5.02335">
        <ele>77</ele>
        <time>2020-05-21T13:38:06Z</time>
      </trkpt>
      <trkpt lat="43.60622" lon="5.02355">
        <ele>77</ele>
        <time>2020-05-21T13:38:38Z</time>
      </trkpt>
      <trkpt lat="43.60589" lon="5.02361">
        <ele>78</ele>
        <time>2020-05-21T13:39:08Z</time>
      </trkpt>
      <trkpt lat="43.60547" lon="5.02343">
        <ele>80</ele>
        <time>2020-05-21T13:39:42Z</time>
      </trkpt>
      <trkpt lat="43.60522" lon="5.02331">
        <ele>80</ele>
        <time>2020-05-21T13:40:07Z</time>
      </trkpt>
      <trkpt lat="43.60488" lon="5.02308">
        <ele>81</ele>
        <time>2020-05-21T13:40:40Z</time>
      </trkpt>
      <trkpt lat="43.60449" lon="5.02315">
        <ele>82</ele>
        <time>2020-05-21T13:41:12Z</time>
      </trkpt>
      <trkpt lat="43.60405" lon="5.02317">
        <ele>80</ele>
        <time>2020-05-21T13:41:46Z</time>
      </trkpt>
      <trkpt lat="43.60372" lon="5.02323">
        <ele>79</ele>
        <time>2020-05-21T13:42:18Z</time>
      </trkpt>
      <trkpt lat="43.60332" lon="5.02337">
        <ele>79</ele>
        <time>2020-05-21T13:42:53Z</time>
      </trkpt>
      <trkpt lat="43.60287" lon="5.02347">
        <ele>80</ele>
        <time>2020-05-21T13:43:31Z</time>
      </trkpt>
      <trkpt lat="43.60248" lon="5.02368">
        <ele>80</ele>
        <time>2020-05-21T13:44:04Z</time>
      </trkpt>
      <trkpt lat="43.60213" lon="5.02399">
        <ele>80</ele>
        <time>2020-05-21T13:44:38Z</time>
      </trkpt>
      <trkpt lat="43.60182" lon="5.02433">
        <ele>84</ele>
        <time>2020-05-21T13:45:11Z</time>
      </trkpt>
      <trkpt lat="43.60156" lon="5.02467">
        <ele>86</ele>
        <time>2020-05-21T13:45:44Z</time>
      </trkpt>
      <trkpt lat="43.60143" lon="5.02486">
        <ele>86</ele>
        <time>2020-05-21T13:46:13Z</time>
      </trkpt>
      <trkpt lat="43.60128" lon="5.02521">
        <ele>90</ele>
        <time>2020-05-21T13:46:43Z</time>
      </trkpt>
      <trkpt lat="43.60124" lon="5.02525">
        <ele>90</ele>
        <time>2020-05-21T13:46:50Z</time>
      </trkpt>
      <trkpt lat="43.60085" lon="5.02541">
        <ele>90</ele>
        <time>2020-05-21T13:47:26Z</time>
      </trkpt>
      <trkpt lat="43.60055" lon="5.02557">
        <ele>87</ele>
        <time>2020-05-21T13:47:51Z</time>
      </trkpt>
      <trkpt lat="43.60044" lon="5.0261">
        <ele>89</ele>
        <time>2020-05-21T13:48:26Z</time>
      </trkpt>
      <trkpt lat="43.60041" lon="5.02661">
        <ele>91</ele>
        <time>2020-05-21T13:48:57Z</time>
      </trkpt>
      <trkpt lat="43.60033" lon="5.02705">
        <ele>93</ele>
        <time>2020-05-21T13:49:27Z</time>
      </trkpt>
      <trkpt lat="43.60029" lon="5.02703">
        <ele>92</ele>
        <time>2020-05-21T13:49:52Z</time>
      </trkpt>
      <trkpt lat="43.60033" lon="5.027">
        <ele>93</ele>
        <time>2020-05-21T13:50:24Z</time>
      </trkpt>
      <trkpt lat="43.60031" lon="5.02706">
        <ele>93</ele>
        <time>2020-05-21T13:57:06Z</time>
      </trkpt>
      <trkpt lat="43.60011" lon="5.0274">
        <ele>91</ele>
        <time>2020-05-21T13:57:37Z</time>
      </trkpt>
      <trkpt lat="43.60007" lon="5.02791">
        <ele>91</ele>
        <time>2020-05-21T13:58:11Z</time>
      </trkpt>
      <trkpt lat="43.60019" lon="5.02844">
        <ele>90</ele>
        <time>2020-05-21T13:58:47Z</time>
      </trkpt>
      <trkpt lat="43.60015" lon="5.02879">
        <ele>90</ele>
        <time>2020-05-21T13:59:18Z</time>
      </trkpt>
      <trkpt lat="43.60011" lon="5.02881">
        <ele>90</ele>
        <time>2020-05-21T13:59:24Z</time>
      </trkpt>
      <trkpt lat="43.60001" lon="5.02906">
        <ele>89</ele>
        <time>2020-05-21T13:59:48Z</time>
      </trkpt>
      <trkpt lat="43.60027" lon="5.0294">
        <ele>90</ele>
        <time>2020-05-21T14:00:22Z</time>
      </trkpt>
      <trkpt lat="43.60057" lon="5.02988">
        <ele>90</ele>
        <time>2020-05-21T14:01:01Z</time>
      </trkpt>
      <trkpt lat="43.60069" lon="5.03019">
        <ele>91</ele>
        <time>2020-05-21T14:01:31Z</time>
      </trkpt>
      <trkpt lat="43.60082" lon="5.03037">
        <ele>92</ele>
        <time>2020-05-21T14:02:00Z</time>
      </trkpt>
      <trkpt lat="43.60115" lon="5.03069">
        <ele>96</ele>
        <time>2020-05-21T14:02:33Z</time>
      </trkpt>
      <trkpt lat="43.60149" lon="5.03092">
        <ele>99</ele>
        <time>2020-05-21T14:03:09Z</time>
      </trkpt>
      <trkpt lat="43.60171" lon="5.0314">
        <ele>102</ele>
        <time>2020-05-21T14:03:45Z</time>
      </trkpt>
      <trkpt lat="43.6019" lon="5.03184">
        <ele>104</ele>
        <time>2020-05-21T14:04:17Z</time>
      </trkpt>
      <trkpt lat="43.6021" lon="5.03234">
        <ele>104</ele>
        <time>2020-05-21T14:04:51Z</time>
      </trkpt>
      <trkpt lat="43.60233" lon="5.03283">
        <ele>105</ele>
        <time>2020-05-21T14:05:24Z</time>
      </trkpt>
      <trkpt lat="43.60258" lon="5.03335">
        <ele>105</ele>
        <time>2020-05-21T14:06:00Z</time>
      </trkpt>
      <trkpt lat="43.60279" lon="5.03363">
        <ele>104</ele>
        <time>2020-05-21T14:06:31Z</time>
      </trkpt>
      <trkpt lat="43.60316" lon="5.03418">
        <ele>105</ele>
        <time>2020-05-21T14:07:07Z</time>
      </trkpt>
      <trkpt lat="43.60346" lon="5.03466">
        <ele>104</ele>
        <time>2020-05-21T14:07:44Z</time>
      </trkpt>
      <trkpt lat="43.60377" lon="5.03501">
        <ele>106</ele>
        <time>2020-05-21T14:08:21Z</time>
      </trkpt>
      <trkpt lat="43.60378" lon="5.03501">
        <ele>106</ele>
        <time>2020-05-21T14:08:22Z</time>
      </trkpt>
      <trkpt lat="43.60421" lon="5.035">
        <ele>105</ele>
        <time>2020-05-21T14:08:56Z</time>
      </trkpt>
      <trkpt lat="43.60428" lon="5.03505">
        <ele>104</ele>
        <time>2020-05-21T14:09:05Z</time>
      </trkpt>
      <trkpt lat="43.60457" lon="5.03546">
        <ele>102</ele>
        <time>2020-05-21T14:09:38Z</time>
      </trkpt>
      <trkpt lat="43.60485" lon="5.03573">
        <ele>100</ele>
        <time>2020-05-21T14:10:12Z</time>
      </trkpt>
      <trkpt lat="43.60502" lon="5.03614">
        <ele>94</ele>
        <time>2020-05-21T14:10:43Z</time>
      </trkpt>
      <trkpt lat="43.60512" lon="5.03633">
        <ele>93</ele>
        <time>2020-05-21T14:11:13Z</time>
      </trkpt>
      <trkpt lat="43.6054" lon="5.03619">
        <ele>91</ele>
        <time>2020-05-21T14:11:39Z</time>
      </trkpt>
      <trkpt lat="43.60565" lon="5.03607">
        <ele>90</ele>
        <time>2020-05-21T14:12:02Z</time>
      </trkpt>
      <trkpt lat="43.60604" lon="5.03592">
        <ele>87</ele>
        <time>2020-05-21T14:12:35Z</time>
      </trkpt>
      <trkpt lat="43.60645" lon="5.03576">
        <ele>88</ele>
        <time>2020-05-21T14:13:07Z</time>
      </trkpt>
      <trkpt lat="43.60688" lon="5.03558">
        <ele>90</ele>
        <time>2020-05-21T14:13:43Z</time>
      </trkpt>
      <trkpt lat="43.60709" lon="5.03543">
        <ele>90</ele>
        <time>2020-05-21T14:14:04Z</time>
      </trkpt>
      <trkpt lat="43.60699" lon="5.03495">
        <ele>90</ele>
        <time>2020-05-21T14:14:31Z</time>
      </trkpt>
      <trkpt lat="43.60717" lon="5.03462">
        <ele>91</ele>
        <time>2020-05-21T14:14:59Z</time>
      </trkpt>
      <trkpt lat="43.60764" lon="5.03441">
        <ele>91</ele>
        <time>2020-05-21T14:15:36Z</time>
      </trkpt>
      <trkpt lat="43.6081" lon="5.03438">
        <ele>90</ele>
        <time>2020-05-21T14:16:11Z</time>
      </trkpt>
      <trkpt lat="43.60838" lon="5.03433">
        <ele>90</ele>
        <time>2020-05-21T14:16:38Z</time>
      </trkpt>
      <trkpt lat="43.6088" lon="5.0345">
        <ele>89</ele>
        <time>2020-05-21T14:17:14Z</time>
      </trkpt>
      <trkpt lat="43.6092" lon="5.03467">
        <ele>88</ele>
        <time>2020-05-21T14:17:49Z</time>
      </trkpt>
      <trkpt lat="43.60965" lon="5.03479">
        <ele>87</ele>
        <time>2020-05-21T14:18:26Z</time>
      </trkpt>
      <trkpt lat="43.61004" lon="5.03465">
        <ele>84</ele>
        <time>2020-05-21T14:18:58Z</time>
      </trkpt>
      <trkpt lat="43.61043" lon="5.03456">
        <ele>83</ele>
        <time>2020-05-21T14:19:30Z</time>
      </trkpt>
      <trkpt lat="43.61081" lon="5.03431">
        <ele>82</ele>
        <time>2020-05-21T14:20:03Z</time>
      </trkpt>
      <trkpt lat="43.61125" lon="5.03411">
        <ele>79</ele>
        <time>2020-05-21T14:20:40Z</time>
      </trkpt>
      <trkpt lat="43.61165" lon="5.03399">
        <ele>78</ele>
        <time>2020-05-21T14:21:13Z</time>
      </trkpt>
      <trkpt lat="43.61205" lon="5.03387">
        <ele>77</ele>
        <time>2020-05-21T14:21:46Z</time>
      </trkpt>
      <trkpt lat="43.61231" lon="5.03385">
        <ele>77</ele>
        <time>2020-05-21T14:22:12Z</time>
      </trkpt>
      <trkpt lat="43.61235" lon="5.0339">
        <ele>76</ele>
        <time>2020-05-21T14:22:18Z</time>
      </trkpt>
      <trkpt lat="43.6124" lon="5.0343">
        <ele>74</ele>
        <time>2020-05-21T14:22:49Z</time>
      </trkpt>
      <trkpt lat="43.61251" lon="5.03489">
        <ele>71</ele>
        <time>2020-05-21T14:23:24Z</time>
      </trkpt>
      <trkpt lat="43.6126" lon="5.0356">
        <ele>72</ele>
        <time>2020-05-21T14:24:05Z</time>
      </trkpt>
      <trkpt lat="43.61279" lon="5.03611">
        <ele>73</ele>
        <time>2020-05-21T14:24:42Z</time>
      </trkpt>
      <trkpt lat="43.61311" lon="5.03595">
        <ele>72</ele>
        <time>2020-05-21T14:25:11Z</time>
      </trkpt>
      <trkpt lat="43.61343" lon="5.03556">
        <ele>70</ele>
        <time>2020-05-21T14:25:44Z</time>
      </trkpt>
      <trkpt lat="43.61375" lon="5.03518">
        <ele>70</ele>
        <time>2020-05-21T14:26:19Z</time>
      </trkpt>
      <trkpt lat="43.61416" lon="5.03495">
        <ele>70</ele>
        <time>2020-05-21T14:26:53Z</time>
      </trkpt>
      <trkpt lat="43.61447" lon="5.03458">
        <ele>70</ele>
        <time>2020-05-21T14:27:27Z</time>
      </trkpt>
      <trkpt lat="43.61467" lon="5.03408">
        <ele>71</ele>
        <time>2020-05-21T14:28:02Z</time>
      </trkpt>
      <trkpt lat="43.61501" lon="5.03387">
        <ele>68</ele>
        <time>2020-05-21T14:28:37Z</time>
      </trkpt>
      <trkpt lat="43.61537" lon="5.03388">
        <ele>67</ele>
        <time>2020-05-21T14:29:07Z</time>
      </trkpt>
      <trkpt lat="43.61558" lon="5.03396">
        <ele>67</ele>
        <time>2020-05-21T14:29:36Z</time>
      </trkpt>
      <trkpt lat="43.61563" lon="5.034">
        <ele>67</ele>
        <time>2020-05-21T14:29:52Z</time>
      </trkpt>
      <trkpt lat="43.61588" lon="5.03444">
        <ele>65</ele>
        <time>2020-05-21T14:30:23Z</time>
      </trkpt>
      <trkpt lat="43.61616" lon="5.03495">
        <ele>65</ele>
        <time>2020-05-21T14:30:56Z</time>
      </trkpt>
      <trkpt lat="43.61632" lon="5.0355">
        <ele>63</ele>
        <time>2020-05-21T14:31:28Z</time>
      </trkpt>
      <trkpt lat="43.61643" lon="5.03607">
        <ele>62</ele>
        <time>2020-05-21T14:32:03Z</time>
      </trkpt>
      <trkpt lat="43.61644" lon="5.03613">
        <ele>62</ele>
        <time>2020-05-21T14:32:35Z</time>
      </trkpt>
      <trkpt lat="43.61641" lon="5.03611">
        <ele>62</ele>
        <time>2020-05-21T14:33:13Z</time>
      </trkpt>
      <trkpt lat="43.61636" lon="5.03604">
        <ele>62</ele>
        <time>2020-05-21T14:33:38Z</time>
      </trkpt>
      <trkpt lat="43.6163" lon="5.03604">
        <ele>62</ele>
        <time>2020-05-21T14:33:45Z</time>
      </trkpt>
      <trkpt lat="43.61613" lon="5.03616">
        <ele>63</ele>
        <time>2020-05-21T14:34:15Z</time>
      </trkpt>
      <trkpt lat="43.61579" lon="5.0365">
        <ele>62</ele>
        <time>2020-05-21T14:34:54Z</time>
      </trkpt>
      <trkpt lat="43.61548" lon="5.03688">
        <ele>61</ele>
        <time>2020-05-21T14:35:29Z</time>
      </trkpt>
      <trkpt lat="43.61514" lon="5.03716">
        <ele>61</ele>
        <time>2020-05-21T14:36:02Z</time>
      </trkpt>
      <trkpt lat="43.61482" lon="5.03746">
        <ele>60</ele>
        <time>2020-05-21T14:36:32Z</time>
      </trkpt>
      <trkpt lat="43.61463" lon="5.03788">
        <ele>57</ele>
        <time>2020-05-21T14:37:06Z</time>
      </trkpt>
      <trkpt lat="43.61457" lon="5.0382">
        <ele>56</ele>
        <time>2020-05-21T14:37:30Z</time>
      </trkpt>
      <trkpt lat="43.61464" lon="5.03833">
        <ele>56</ele>
        <time>2020-05-21T14:37:49Z</time>
      </trkpt>
      <trkpt lat="43.6148" lon="5.03841">
        <ele>56</ele>
        <time>2020-05-21T14:38:16Z</time>
      </trkpt>
      <trkpt lat="43.61511" lon="5.0386">
        <ele>55</ele>
        <time>2020-05-21T14:38:48Z</time>
      </trkpt>
      <trkpt lat="43.61533" lon="5.03872">
        <ele>55</ele>
        <time>2020-05-21T14:39:20Z</time>
      </trkpt>
      <trkpt lat="43.61539" lon="5.03882">
        <ele>55</ele>
        <time>2020-05-21T14:39:46Z</time>
      </trkpt>
      <trkpt lat="43.61551" lon="5.03895">
        <ele>55</ele>
        <time>2020-05-21T14:40:02Z</time>
      </trkpt>
      <trkpt lat="43.61577" lon="5.03927">
        <ele>55</ele>
        <time>2020-05-21T14:40:32Z</time>
      </trkpt>
      <trkpt lat="43.61601" lon="5.03972">
        <ele>54</ele>
        <time>2020-05-21T14:41:04Z</time>
      </trkpt>
      <trkpt lat="43.61618" lon="5.04021">
        <ele>55</ele>
        <time>2020-05-21T14:41:34Z</time>
      </trkpt>
      <trkpt lat="43.61643" lon="5.04059">
        <ele>55</ele>
        <time>2020-05-21T14:42:06Z</time>
      </trkpt>
      <trkpt lat="43.61675" lon="5.04082">
        <ele>54</ele>
        <time>2020-05-21T14:42:37Z</time>
      </trkpt>
      <trkpt lat="43.61704" lon="5.04121">
        <ele>54</ele>
        <time>2020-05-21T14:43:08Z</time>
      </trkpt>
      <trkpt lat="43.61708" lon="5.04164">
        <ele>54</ele>
        <time>2020-05-21T14:43:38Z</time>
      </trkpt>
      <trkpt lat="43.61701" lon="5.04208">
        <ele>54</ele>
        <time>2020-05-21T14:44:09Z</time>
      </trkpt>
      <trkpt lat="43.61691" lon="5.0426">
        <ele>55</ele>
        <time>2020-05-21T14:44:42Z</time>
      </trkpt>
      <trkpt lat="43.6169" lon="5.04317">
        <ele>57</ele>
        <time>2020-05-21T14:45:17Z</time>
      </trkpt>
      <trkpt lat="43.6169" lon="5.04352">
        <ele>58</ele>
        <time>2020-05-21T14:45:46Z</time>
      </trkpt>
      <trkpt lat="43.61693" lon="5.044">
        <ele>58</ele>
        <time>2020-05-21T14:46:17Z</time>
      </trkpt>
      <trkpt lat="43.61697" lon="5.04445">
        <ele>57</ele>
        <time>2020-05-21T14:46:48Z</time>
      </trkpt>
      <trkpt lat="43.61701" lon="5.04493">
        <ele>57</ele>
        <time>2020-05-21T14:47:19Z</time>
      </trkpt>
      <trkpt lat="43.61712" lon="5.04544">
        <ele>56</ele>
        <time>2020-05-21T14:47:53Z</time>
      </trkpt>
      <trkpt lat="43.61723" lon="5.04595">
        <ele>55</ele>
        <time>2020-05-21T14:48:28Z</time>
      </trkpt>
      <trkpt lat="43.61729" lon="5.04642">
        <ele>55</ele>
        <time>2020-05-21T14:48:59Z</time>
      </trkpt>
      <trkpt lat="43.61723" lon="5.04668">
        <ele>55</ele>
        <time>2020-05-21T14:49:22Z</time>
      </trkpt>
      <trkpt lat="43.61708" lon="5.04713">
        <ele>55</ele>
        <time>2020-05-21T14:49:55Z</time>
      </trkpt>
      <trkpt lat="43.61708" lon="5.04767">
        <ele>56</ele>
        <time>2020-05-21T14:50:29Z</time>
      </trkpt>
      <trkpt lat="43.617" lon="5.04786">
        <ele>56</ele>
        <time>2020-05-21T14:50:47Z</time>
      </trkpt>
      <trkpt lat="43.6167" lon="5.0481">
        <ele>56</ele>
        <time>2020-05-21T14:51:21Z</time>
      </trkpt>
      <trkpt lat="43.61629" lon="5.04829">
        <ele>58</ele>
        <time>2020-05-21T14:51:56Z</time>
      </trkpt>
      <trkpt lat="43.61594" lon="5.04856">
        <ele>58</ele>
        <time>2020-05-21T14:52:32Z</time>
      </trkpt>
      <trkpt lat="43.61574" lon="5.04897">
        <ele>57</ele>
        <time>2020-05-21T14:53:03Z</time>
      </trkpt>
      <trkpt lat="43.61546" lon="5.04927">
        <ele>56</ele>
        <time>2020-05-21T14:53:37Z</time>
      </trkpt>
      <trkpt lat="43.61526" lon="5.04967">
        <ele>56</ele>
        <time>2020-05-21T14:54:08Z</time>
      </trkpt>
      <trkpt lat="43.61491" lon="5.05005">
        <ele>55</ele>
        <time>2020-05-21T14:54:46Z</time>
      </trkpt>
      <trkpt lat="43.61462" lon="5.04996">
        <ele>58</ele>
        <time>2020-05-21T14:55:14Z</time>
      </trkpt>
      <trkpt lat="43.61425" lon="5.05011">
        <ele>56</ele>
        <time>2020-05-21T14:55:46Z</time>
      </trkpt>
      <trkpt lat="43.61391" lon="5.05022">
        <ele>56</ele>
        <time>2020-05-21T14:56:18Z</time>
      </trkpt>
      <trkpt lat="43.61359" lon="5.05006">
        <ele>56</ele>
        <time>2020-05-21T14:56:53Z</time>
      </trkpt>
      <trkpt lat="43.61326" lon="5.05025">
        <ele>56</ele>
        <time>2020-05-21T14:57:26Z</time>
      </trkpt>
      <trkpt lat="43.61289" lon="5.05034">
        <ele>55</ele>
        <time>2020-05-21T14:57:56Z</time>
      </trkpt>
      <trkpt lat="43.61257" lon="5.05053">
        <ele>54</ele>
        <time>2020-05-21T14:58:25Z</time>
      </trkpt>
      <trkpt lat="43.6123" lon="5.05082">
        <ele>54</ele>
        <time>2020-05-21T14:58:57Z</time>
      </trkpt>
      <trkpt lat="43.61204" lon="5.0511">
        <ele>53</ele>
        <time>2020-05-21T14:59:28Z</time>
      </trkpt>
      <trkpt lat="43.61181" lon="5.0516">
        <ele>51</ele>
        <time>2020-05-21T15:00:03Z</time>
      </trkpt>
      <trkpt lat="43.61156" lon="5.05203">
        <ele>52</ele>
        <time>2020-05-21T15:00:38Z</time>
      </trkpt>
      <trkpt lat="43.61143" lon="5.0525">
        <ele>52</ele>
        <time>2020-05-21T15:01:10Z</time>
      </trkpt>
      <trkpt lat="43.61133" lon="5.05305">
        <ele>53</ele>
        <time>2020-05-21T15:01:45Z</time>
      </trkpt>
      <trkpt lat="43.61122" lon="5.05361">
        <ele>54</ele>
        <time>2020-05-21T15:02:18Z</time>
      </trkpt>
      <trkpt lat="43.61124" lon="5.0542">
        <ele>54</ele>
        <time>2020-05-21T15:02:53Z</time>
      </trkpt>
      <trkpt lat="43.61112" lon="5.05471">
        <ele>54</ele>
        <time>2020-05-21T15:03:26Z</time>
      </trkpt>
      <trkpt lat="43.611" lon="5.05526">
        <ele>55</ele>
        <time>2020-05-21T15:04:01Z</time>
      </trkpt>
      <trkpt lat="43.61067" lon="5.05575">
        <ele>58</ele>
        <time>2020-05-21T15:04:42Z</time>
      </trkpt>
      <trkpt lat="43.6103" lon="5.05603">
        <ele>61</ele>
        <time>2020-05-21T15:05:18Z</time>
      </trkpt>
      <trkpt lat="43.61002" lon="5.0563">
        <ele>61</ele>
        <time>2020-05-21T15:05:50Z</time>
      </trkpt>
      <trkpt lat="43.60966" lon="5.05659">
        <ele>62</ele>
        <time>2020-05-21T15:06:23Z</time>
      </trkpt>
      <trkpt lat="43.60929" lon="5.05694">
        <ele>61</ele>
        <time>2020-05-21T15:06:58Z</time>
      </trkpt>
      <trkpt lat="43.60905" lon="5.05726">
        <ele>63</ele>
        <time>2020-05-21T15:07:27Z</time>
      </trkpt>
      <trkpt lat="43.60887" lon="5.0577">
        <ele>61</ele>
        <time>2020-05-21T15:07:58Z</time>
      </trkpt>
      <trkpt lat="43.60893" lon="5.05823">
        <ele>59</ele>
        <time>2020-05-21T15:08:31Z</time>
      </trkpt>
      <trkpt lat="43.609" lon="5.0589">
        <ele>57</ele>
        <time>2020-05-21T15:09:14Z</time>
      </trkpt>
      <trkpt lat="43.60908" lon="5.05917">
        <ele>55</ele>
        <time>2020-05-21T15:09:42Z</time>
      </trkpt>
      <trkpt lat="43.60922" lon="5.05965">
        <ele>54</ele>
        <time>2020-05-21T15:10:16Z</time>
      </trkpt>
      <trkpt lat="43.60937" lon="5.06016">
        <ele>56</ele>
        <time>2020-05-21T15:10:50Z</time>
      </trkpt>
      <trkpt lat="43.60912" lon="5.0605">
        <ele>56</ele>
        <time>2020-05-21T15:11:22Z</time>
      </trkpt>
      <trkpt lat="43.60883" lon="5.06083">
        <ele>56</ele>
        <time>2020-05-21T15:11:53Z</time>
      </trkpt>
      <trkpt lat="43.60871" lon="5.06093">
        <ele>56</ele>
        <time>2020-05-21T15:12:09Z</time>
      </trkpt>
      <trkpt lat="43.60844" lon="5.06112">
        <ele>56</ele>
        <time>2020-05-21T15:12:36Z</time>
      </trkpt>
      <trkpt lat="43.60804" lon="5.06133">
        <ele>56</ele>
        <time>2020-05-21T15:13:10Z</time>
      </trkpt>
      <trkpt lat="43.60773" lon="5.06169">
        <ele>55</ele>
        <time>2020-05-21T15:13:42Z</time>
      </trkpt>
      <trkpt lat="43.60751" lon="5.0619">
        <ele>55</ele>
        <time>2020-05-21T15:14:10Z</time>
      </trkpt>
      <trkpt lat="43.60726" lon="5.06226">
        <ele>57</ele>
        <time>2020-05-21T15:14:40Z</time>
      </trkpt>
      <trkpt lat="43.6073" lon="5.0626">
        <ele>56</ele>
        <time>2020-05-21T15:15:11Z</time>
      </trkpt>
      <trkpt lat="43.60731" lon="5.0626">
        <ele>56</ele>
        <time>2020-05-21T15:15:12Z</time>
      </trkpt>
      <trkpt lat="43.60746" lon="5.0625">
        <ele>55</ele>
        <time>2020-05-21T15:15:42Z</time>
      </trkpt>
      <trkpt lat="43.60747" lon="5.0625">
        <ele>55</ele>
        <time>2020-05-21T15:15:43Z</time>
      </trkpt>
      <trkpt lat="43.60772" lon="5.06285">
        <ele>56</ele>
        <time>2020-05-21T15:16:15Z</time>
      </trkpt>
      <trkpt lat="43.60783" lon="5.06287">
        <ele>56</ele>
        <time>2020-05-21T15:16:42Z</time>
      </trkpt>
      <trkpt lat="43.60786" lon="5.06287">
        <ele>56</ele>
        <time>2020-05-21T15:16:51Z</time>
      </trkpt>
      <trkpt lat="43.60824" lon="5.06287">
        <ele>56</ele>
        <time>2020-05-21T15:17:21Z</time>
      </trkpt>
      <trkpt lat="43.60856" lon="5.06298">
        <ele>57</ele>
        <time>2020-05-21T15:17:56Z</time>
      </trkpt>
      <trkpt lat="43.60873" lon="5.06302">
        <ele>57</ele>
        <time>2020-05-21T15:18:22Z</time>
      </trkpt>
      <trkpt lat="43.60889" lon="5.06301">
        <ele>57</ele>
        <time>2020-05-21T15:18:49Z</time>
      </trkpt>
      <trkpt lat="43.60933" lon="5.0632">
        <ele>59</ele>
        <time>2020-05-21T15:19:22Z</time>
      </trkpt>
      <trkpt lat="43.60967" lon="5.06356">
        <ele>58</ele>
        <time>2020-05-21T15:19:55Z</time>
      </trkpt>
      <trkpt lat="43.60979" lon="5.06371">
        <ele>57</ele>
        <time>2020-05-21T15:20:23Z</time>
      </trkpt>
      <trkpt lat="43.60979" lon="5.0637">
        <ele>58</ele>
        <time>2020-05-21T15:20:50Z</time>
      </trkpt>
      <trkpt lat="43.60974" lon="5.06366">
        <ele>58</ele>
        <time>2020-05-21T15:21:18Z</time>
      </trkpt>
      <trkpt lat="43.60976" lon="5.06366">
        <ele>58</ele>
        <time>2020-05-21T15:21:30Z</time>
      </trkpt>
      <trkpt lat="43.60984" lon="5.06375">
        <ele>57</ele>
        <time>2020-05-21T15:21:59Z</time>
      </trkpt>
      <trkpt lat="43.60984" lon="5.06379">
        <ele>57</ele>
        <time>2020-05-21T15:22:27Z</time>
      </trkpt>
      <trkpt lat="43.6098" lon="5.06376">
        <ele>57</ele>
        <time>2020-05-21T15:22:31Z</time>
      </trkpt>
      <trkpt lat="43.60975" lon="5.06375">
        <ele>57</ele>
        <time>2020-05-21T15:22:39Z</time>
      </trkpt>
    </trkseg>
  </trk>
</gpx>